Hermanos Mora Martin — EA7601 — position and weather

sailwx.info

Track history (hours):
 
Tides and Currents Weather Stations Pressure Air Temp Water Temp Dewpoint Dewpoint Depression Visibility Wind Speed Wind Dir Waves Ship Positions

Hermanos Mora Martin

Last reported at 2018-Jun-24 11:25 UTC. Time now 2018-Jun-25 19:36 UTC.
Position N 36°46' W 008°45'.

Length 23 m.

Type: Fishing. MMSI: 224171260.

Date/timePositionNaut miles runAvg speedWind from/ knotsBaromVisibWave heightAir tempDewpointWater temp
2018-Jun-24 11:25N 36°46' W 008°45'4 0.7
2018-Jun-24 06:10N 36°46' W 008°41'0 2.5
2018-Jun-24 05:59N 36°46' W 008°41'1 2.5
2018-Jun-24 05:30N 36°46' W 008°43'1 2.7
2018-Jun-24 05:00N 36°46' W 008°45'1 2.8
2018-Jun-24 04:30N 36°46' W 008°46'0 0.1
2018-Jun-23 23:43N 36°46' W 008°47'4 0.8
2018-Jun-23 18:43N 36°46' W 008°42'1 2.8
2018-Jun-23 18:29N 36°46' W 008°42'1 2.8
2018-Jun-23 18:00N 36°46' W 008°44'1 2.9
2018-Jun-23 17:30N 36°46' W 008°46'0 0.1
2018-Jun-23 12:13N 36°46' W 008°45'1 3.0
2018-Jun-23 11:59N 36°46' W 008°45'1 3.0
2018-Jun-23 11:30N 36°46' W 008°43'4 1.8
2018-Jun-23 09:14N 36°46' W 008°38'0 0.7
2018-Jun-23 08:46N 36°46' W 008°37'2 2.7
2018-Jun-23 08:04N 36°46' W 008°40'0 2.8
2018-Jun-23 07:55N 36°46' W 008°40'1 2.8
2018-Jun-23 07:28N 36°46' W 008°42'1 2.7
2018-Jun-23 07:00N 36°46' W 008°43'1 2.6
2018-Jun-23 06:30N 36°46' W 008°45'1 2.6
2018-Jun-23 06:00N 36°46' W 008°46'1 2.7
2018-Jun-23 05:30N 36°46' W 008°48'2 0.3
2018-Jun-22 23:49N 36°47' W 008°46'1 3.2
2018-Jun-22 23:24N 36°47' W 008°45'8 2.9
2018-Jun-22 20:36N 36°47' W 008°34'0 1.2
2018-Jun-22 20:29N 36°47' W 008°35'6 2.3
2018-Jun-22 17:41N 36°47' W 008°43'1 2.8
2018-Jun-22 17:30N 36°47' W 008°43'2 2.8
2018-Jun-22 16:56N 36°47' W 008°45'5 3.0
2018-Jun-22 15:16N 36°47' W 008°51'35 0.7
2018-Jun-20 12:33N 36°52' W 008°08'110.2
2018-Jun-20 12:29N 36°52' W 008°09'27 1.4
2018-Jun-19 17:27N 36°47' W 008°43'10 0.6
2018-Jun-19 00:55N 36°47' W 008°55'0 0.7
2018-Jun-19 00:30N 36°47' W 008°55'1 2.8
2018-Jun-18 23:59N 36°47' W 008°53'1 2.9
2018-Jun-18 23:30N 36°47' W 008°51'2 3.0
2018-Jun-18 23:00N 36°47' W 008°49'3 3.1
2018-Jun-18 22:02N 36°47' W 008°46'0 0.0
2018-Jun-18 09:02N 36°47' W 008°46'0 3.3
2018-Jun-18 09:00N 36°47' W 008°46'6 3.1
2018-Jun-18 07:10N 36°47' W 008°38'0 2.9
2018-Jun-18 07:00N 36°47' W 008°38'1 2.8
2018-Jun-18 06:30N 36°47' W 008°36'3 3.7
2018-Jun-18 05:48N 36°47' W 008°33'310.2
2018-Jun-18 05:29N 36°47' W 008°29'810.0
2018-Jun-18 04:43N 36°49' W 008°20'4 9.8
2018-Jun-18 04:20N 36°50' W 008°15'  
Track history (hours):
 
Tides and Currents Weather Stations Pressure Air Temp Water Temp Dewpoint Dewpoint Depression Visibility Wind Speed Wind Dir Waves Ship Positions

Hermanos Mora Martin

Last reported at 2018-Jun-24 11:25 UTC. Time now 2018-Jun-25 19:36 UTC.
Position N 36°46' W 008°45'.

Length 23 m.

Type: Fishing. MMSI: 224171260.

Date/timePositionNaut miles runAvg speedWind from/ knotsBaromVisibWave heightAir tempDewpointWater temp
2018-Jun-24 11:25N 36°46' W 008°45'4 0.7
2018-Jun-24 06:10N 36°46' W 008°41'0 2.5
2018-Jun-24 05:59N 36°46' W 008°41'1 2.5
2018-Jun-24 05:30N 36°46' W 008°43'1 2.7
2018-Jun-24 05:00N 36°46' W 008°45'1 2.8
2018-Jun-24 04:30N 36°46' W 008°46'0 0.1
2018-Jun-23 23:43N 36°46' W 008°47'4 0.8
2018-Jun-23 18:43N 36°46' W 008°42'1 2.8
2018-Jun-23 18:29N 36°46' W 008°42'1 2.8
2018-Jun-23 18:00N 36°46' W 008°44'1 2.9
2018-Jun-23 17:30N 36°46' W 008°46'0 0.1
2018-Jun-23 12:13N 36°46' W 008°45'1 3.0
2018-Jun-23 11:59N 36°46' W 008°45'1 3.0
2018-Jun-23 11:30N 36°46' W 008°43'4 1.8
2018-Jun-23 09:14N 36°46' W 008°38'0 0.7
2018-Jun-23 08:46N 36°46' W 008°37'2 2.7
2018-Jun-23 08:04N 36°46' W 008°40'0 2.8
2018-Jun-23 07:55N 36°46' W 008°40'1 2.8
2018-Jun-23 07:28N 36°46' W 008°42'1 2.7
2018-Jun-23 07:00N 36°46' W 008°43'1 2.6
2018-Jun-23 06:30N 36°46' W 008°45'1 2.6
2018-Jun-23 06:00N 36°46' W 008°46'1 2.7
2018-Jun-23 05:30N 36°46' W 008°48'2 0.3
2018-Jun-22 23:49N 36°47' W 008°46'1 3.2
2018-Jun-22 23:24N 36°47' W 008°45'8 2.9
2018-Jun-22 20:36N 36°47' W 008°34'0 1.2
2018-Jun-22 20:29N 36°47' W 008°35'6 2.3
2018-Jun-22 17:41N 36°47' W 008°43'1 2.8
2018-Jun-22 17:30N 36°47' W 008°43'2 2.8
2018-Jun-22 16:56N 36°47' W 008°45'5 3.0
2018-Jun-22 15:16N 36°47' W 008°51'35 0.7
2018-Jun-20 12:33N 36°52' W 008°08'110.2
2018-Jun-20 12:29N 36°52' W 008°09'27 1.4
2018-Jun-19 17:27N 36°47' W 008°43'10 0.6
2018-Jun-19 00:55N 36°47' W 008°55'0 0.7
2018-Jun-19 00:30N 36°47' W 008°55'1 2.8
2018-Jun-18 23:59N 36°47' W 008°53'1 2.9
2018-Jun-18 23:30N 36°47' W 008°51'2 3.0
2018-Jun-18 23:00N 36°47' W 008°49'3 3.1
2018-Jun-18 22:02N 36°47' W 008°46'0 0.0
2018-Jun-18 09:02N 36°47' W 008°46'0 3.3
2018-Jun-18 09:00N 36°47' W 008°46'6 3.1
2018-Jun-18 07:10N 36°47' W 008°38'0 2.9
2018-Jun-18 07:00N 36°47' W 008°38'1 2.8
2018-Jun-18 06:30N 36°47' W 008°36'3 3.7
2018-Jun-18 05:48N 36°47' W 008°33'310.2
2018-Jun-18 05:29N 36°47' W 008°29'810.0
2018-Jun-18 04:43N 36°49' W 008°20'4 9.8
2018-Jun-18 04:20N 36°50' W 008°15'  

Dump ship's entire track history